createdAt,value
2022-08-03T00:00:38.747Z,18.63
2022-08-03T00:03:07.070Z,18.64
2022-08-03T00:05:35.365Z,18.63
2022-08-03T00:08:04.487Z,18.63
2022-08-03T00:10:32.832Z,18.62
2022-08-03T00:13:01.176Z,18.62
2022-08-03T00:15:29.833Z,18.62
2022-08-03T00:17:58.192Z,18.63
2022-08-03T00:20:26.920Z,18.65
2022-08-03T00:22:55.613Z,18.68
2022-08-03T00:25:23.919Z,18.70
2022-08-03T00:27:52.589Z,18.71
2022-08-03T00:30:21.046Z,18.71
2022-08-03T00:32:49.612Z,18.72
2022-08-03T00:35:35.102Z,18.71
2022-08-03T00:38:06.415Z,18.71
2022-08-03T00:40:35.265Z,18.71
2022-08-03T00:43:07.544Z,18.69
2022-08-03T00:45:44.819Z,18.68
2022-08-03T00:48:19.759Z,18.68
2022-08-03T00:51:01.880Z,18.67
2022-08-03T00:53:30.891Z,18.68
2022-08-03T00:55:59.669Z,18.71
2022-08-03T00:58:28.366Z,18.71
2022-08-03T01:00:56.806Z,18.72
2022-08-03T01:03:25.057Z,18.74
2022-08-03T01:06:04.743Z,18.74
2022-08-03T01:08:54.852Z,18.74
2022-08-03T01:11:29.481Z,18.73
2022-08-03T01:14:19.299Z,18.71
2022-08-03T01:16:55.307Z,18.69
2022-08-03T01:20:05.213Z,18.69
2022-08-03T01:23:21.137Z,18.69
2022-08-03T01:26:22.567Z,18.69
2022-08-03T01:29:22.921Z,18.70
2022-08-03T01:32:54.525Z,18.72
2022-08-03T01:34:59.428Z,18.73
2022-08-03T01:37:52.096Z,18.73
2022-08-03T01:40:22.461Z,18.74
2022-08-03T01:42:52.010Z,18.73
2022-08-03T01:45:22.319Z,18.73
2022-08-03T01:47:53.221Z,18.71
2022-08-03T01:50:25.368Z,18.70
2022-08-03T01:52:56.702Z,18.70
2022-08-03T01:55:29.192Z,18.68
2022-08-03T01:58:05.535Z,18.69
2022-08-03T02:00:39.792Z,18.70
2022-08-03T02:03:10.834Z,18.72
2022-08-03T02:05:41.308Z,18.71
2022-08-03T02:08:13.116Z,18.72
2022-08-03T02:10:43.449Z,18.72
2022-08-03T02:13:12.937Z,18.70
2022-08-03T02:15:42.810Z,18.68
2022-08-03T02:18:11.407Z,18.65
2022-08-03T02:20:42.234Z,18.60
2022-08-03T02:23:10.738Z,18.57
2022-08-03T02:25:53.350Z,18.55
2022-08-03T02:28:25.648Z,18.56
2022-08-03T02:30:56.229Z,18.56
2022-08-03T02:33:32.398Z,18.56
2022-08-03T02:36:02.418Z,18.56
2022-08-03T02:38:39.093Z,18.55
2022-08-03T02:41:17.844Z,18.52
2022-08-03T02:44:05.739Z,18.49
2022-08-03T02:46:39.043Z,18.45
2022-08-03T02:49:50.085Z,18.42
2022-08-03T02:51:58.399Z,18.39
2022-08-03T02:54:27.310Z,18.34
2022-08-03T02:56:58.803Z,18.35
2022-08-03T02:59:31.341Z,18.35
2022-08-03T03:02:02.476Z,18.34
2022-08-03T03:04:33.170Z,18.34
2022-08-03T03:07:04.409Z,18.34
2022-08-03T03:09:39.945Z,18.33
2022-08-03T03:12:11.694Z,18.29
2022-08-03T03:14:40.922Z,18.27
2022-08-03T03:17:11.666Z,18.24
2022-08-03T03:19:41.707Z,18.22
2022-08-03T03:22:11.092Z,18.20
2022-08-03T03:24:41.907Z,18.19
2022-08-03T03:27:10.675Z,18.19
2022-08-03T03:29:45.223Z,18.19
2022-08-03T03:32:14.527Z,18.19
2022-08-03T03:34:44.243Z,18.19
2022-08-03T03:37:13.167Z,18.18
2022-08-03T03:39:41.785Z,18.17
2022-08-03T03:42:10.235Z,18.16
2022-08-03T03:44:38.856Z,18.17
2022-08-03T03:47:07.570Z,18.18
2022-08-03T03:49:36.985Z,18.20
2022-08-03T03:52:05.605Z,18.22
2022-08-03T03:54:45.503Z,18.23
2022-08-03T03:57:13.797Z,18.23
2022-08-03T03:59:42.993Z,18.21
2022-08-03T04:02:12.536Z,18.22
2022-08-03T04:04:59.268Z,18.22
2022-08-03T04:07:46.712Z,18.23
2022-08-03T04:10:42.333Z,18.24
2022-08-03T04:13:13.808Z,18.27
2022-08-03T04:15:43.711Z,18.30
2022-08-03T04:18:14.939Z,18.34
2022-08-03T04:20:48.012Z,18.39
2022-08-03T04:23:20.716Z,18.42
2022-08-03T04:25:51.657Z,18.46
2022-08-03T04:28:30.578Z,18.50
2022-08-03T04:31:03.664Z,18.54
2022-08-03T04:33:35.011Z,18.58
2022-08-03T04:36:07.984Z,18.61
2022-08-03T04:38:44.499Z,18.65
2022-08-03T04:41:14.227Z,18.70
2022-08-03T04:43:42.989Z,18.77
2022-08-03T04:46:16.750Z,18.84
2022-08-03T04:48:46.435Z,18.90
2022-08-03T04:51:15.350Z,18.96
2022-08-03T04:53:44.249Z,19.02
2022-08-03T04:56:12.768Z,19.06
2022-08-03T04:58:41.007Z,19.11
2022-08-03T05:01:09.682Z,19.15
2022-08-03T05:03:38.263Z,19.19
2022-08-03T05:06:11.119Z,19.24
2022-08-03T05:08:46.149Z,19.28
2022-08-03T05:11:16.593Z,19.32
2022-08-03T05:13:45.991Z,19.38
2022-08-03T05:16:14.364Z,19.44
2022-08-03T05:18:43.454Z,19.51
2022-08-03T05:21:17.237Z,19.64
2022-08-03T05:23:45.527Z,19.74
2022-08-03T05:26:13.910Z,19.81
2022-08-03T05:28:49.972Z,19.94
2022-08-03T05:31:19.958Z,20.04
2022-08-03T05:33:49.497Z,20.12
2022-08-03T05:36:17.590Z,20.20
2022-08-03T05:38:46.191Z,20.24
2022-08-03T05:41:21.710Z,20.30
2022-08-03T05:43:54.210Z,20.40
2022-08-03T05:46:23.398Z,20.52
2022-08-03T05:48:52.310Z,20.77
2022-08-03T05:51:20.855Z,20.95
2022-08-03T05:53:49.396Z,21.22
2022-08-03T05:56:17.728Z,21.43
2022-08-03T05:58:47.519Z,21.52
2022-08-03T06:01:17.441Z,21.57
2022-08-03T06:03:46.418Z,21.64
2022-08-03T06:06:16.005Z,21.76
2022-08-03T06:08:45.266Z,21.83
2022-08-03T06:11:13.691Z,21.89
2022-08-03T06:13:42.336Z,22.02
2022-08-03T06:16:11.067Z,22.29
2022-08-03T06:18:40.659Z,22.51
2022-08-03T06:21:15.486Z,22.65
2022-08-03T06:23:54.427Z,22.78
2022-08-03T06:26:25.577Z,22.83
2022-08-03T06:28:55.270Z,22.78
2022-08-03T06:31:32.708Z,22.76
2022-08-03T06:34:34.506Z,22.71
2022-08-03T06:36:58.541Z,22.65
2022-08-03T06:39:30.406Z,22.61
2022-08-03T06:41:59.289Z,22.56
2022-08-03T06:44:27.542Z,22.53
2022-08-03T06:46:55.982Z,22.52
2022-08-03T06:49:24.850Z,22.50
2022-08-03T06:52:06.193Z,22.47
2022-08-03T06:54:36.230Z,22.43
2022-08-03T06:57:04.782Z,22.43
2022-08-03T07:00:07.597Z,22.41
2022-08-03T07:02:21.581Z,22.47
2022-08-03T07:04:50.520Z,22.58
2022-08-03T07:07:19.570Z,22.73
2022-08-03T07:09:53.193Z,22.86
2022-08-03T07:12:29.535Z,22.95
2022-08-03T07:15:02.325Z,23.09
2022-08-03T07:17:32.532Z,23.24
2022-08-03T07:20:02.481Z,23.41
2022-08-03T07:22:30.748Z,23.53
2022-08-03T07:24:59.451Z,23.62
2022-08-03T07:27:29.724Z,23.65
2022-08-03T07:30:00.077Z,23.72
2022-08-03T07:32:31.823Z,23.75
2022-08-03T07:35:01.373Z,23.82
2022-08-03T07:37:31.020Z,23.90
2022-08-03T07:40:00.954Z,23.99
2022-08-03T07:42:29.590Z,24.05
2022-08-03T07:44:58.869Z,24.11
2022-08-03T07:47:35.405Z,24.18
2022-08-03T07:50:06.663Z,24.26
2022-08-03T07:52:49.908Z,24.35
2022-08-03T07:55:26.106Z,24.46
2022-08-03T07:58:23.743Z,24.57
2022-08-03T08:00:53.411Z,24.66
2022-08-03T08:03:24.545Z,24.71
2022-08-03T08:05:53.845Z,24.74
2022-08-03T08:08:22.062Z,24.70
2022-08-03T08:10:57.978Z,24.71
2022-08-03T08:13:27.105Z,24.77
2022-08-03T08:15:55.425Z,24.84
2022-08-03T08:18:24.339Z,24.92
2022-08-03T08:20:52.753Z,24.98
2022-08-03T08:23:41.716Z,25.03
2022-08-03T08:26:11.868Z,25.09
2022-08-03T08:28:40.304Z,25.10
2022-08-03T08:31:08.801Z,25.08
2022-08-03T08:34:02.764Z,25.10
2022-08-03T08:36:25.506Z,25.17
2022-08-03T08:38:53.929Z,25.23
2022-08-03T08:41:22.175Z,25.30
2022-08-03T08:43:50.913Z,25.32
2022-08-03T08:46:23.929Z,25.35
2022-08-03T08:48:54.698Z,25.41
2022-08-03T08:51:50.627Z,25.47
2022-08-03T08:54:22.524Z,25.54
2022-08-03T08:56:52.879Z,25.57
2022-08-03T08:59:22.099Z,25.56
2022-08-03T09:01:50.683Z,25.55
2022-08-03T09:04:19.120Z,25.57
2022-08-03T09:07:10.469Z,25.57
2022-08-03T09:10:04.694Z,25.59
2022-08-03T09:12:42.332Z,25.63
2022-08-03T09:15:17.643Z,25.61
2022-08-03T09:17:50.666Z,25.59
2022-08-03T09:20:21.761Z,25.57
2022-08-03T09:23:01.830Z,25.56
2022-08-03T09:25:30.253Z,25.61
2022-08-03T09:28:12.212Z,25.70
2022-08-03T09:30:43.646Z,25.74
2022-08-03T09:33:15.091Z,25.75
2022-08-03T09:35:54.805Z,25.80
2022-08-03T09:38:26.422Z,25.86
2022-08-03T09:41:00.019Z,25.93
2022-08-03T09:43:45.877Z,26.00
2022-08-03T09:46:14.293Z,26.05
2022-08-03T09:48:42.554Z,26.10
2022-08-03T09:51:32.815Z,26.18
2022-08-03T09:54:05.787Z,26.26
2022-08-03T09:56:45.153Z,26.31
2022-08-03T09:59:23.227Z,26.37
2022-08-03T10:01:52.589Z,26.46
2022-08-03T10:04:22.341Z,26.56
2022-08-03T10:07:09.487Z,26.64
2022-08-03T10:09:38.694Z,26.69
2022-08-03T10:12:12.740Z,26.70
2022-08-03T10:14:44.065Z,26.77
2022-08-03T10:17:12.545Z,26.85
2022-08-03T10:19:44.406Z,26.87
2022-08-03T10:22:14.833Z,26.88
2022-08-03T10:25:00.166Z,26.93
2022-08-03T10:27:33.776Z,27.01
2022-08-03T10:30:05.618Z,27.09
2022-08-03T10:33:49.593Z,27.10
2022-08-03T10:36:20.374Z,27.11
2022-08-03T10:38:53.453Z,27.14
2022-08-03T10:41:25.796Z,27.18
2022-08-03T10:44:18.117Z,27.22
2022-08-03T10:46:48.622Z,27.25
2022-08-03T10:49:35.305Z,27.26
2022-08-03T10:52:31.446Z,27.34
2022-08-03T10:55:11.974Z,27.41
2022-08-03T10:57:52.590Z,27.46
2022-08-03T11:00:30.430Z,27.55
2022-08-03T11:03:01.774Z,27.62
2022-08-03T11:05:32.682Z,27.69
2022-08-03T11:08:32.767Z,27.76
2022-08-03T11:11:23.920Z,27.85
2022-08-03T11:14:17.387Z,27.92
2022-08-03T11:17:14.392Z,28.02
2022-08-03T11:19:57.692Z,28.10
2022-08-03T11:22:51.768Z,28.16
2022-08-03T11:25:53.238Z,28.21
2022-08-03T11:28:41.746Z,28.29
2022-08-03T11:31:49.778Z,28.38
2022-08-03T11:34:15.540Z,28.44
2022-08-03T11:37:22.822Z,28.50
2022-08-03T11:39:54.759Z,28.59
2022-08-03T11:42:27.137Z,28.66
2022-08-03T11:44:58.388Z,28.74
2022-08-03T11:47:29.733Z,28.82
2022-08-03T11:50:02.315Z,28.90
2022-08-03T11:52:39.004Z,28.97
2022-08-03T11:55:12.483Z,29.03
2022-08-03T11:59:10.668Z,29.10
2022-08-03T12:00:30.604Z,29.17
2022-08-03T12:03:02.019Z,29.19
2022-08-03T12:05:40.309Z,29.25
2022-08-03T12:08:10.603Z,29.31
2022-08-03T12:10:41.701Z,29.36
2022-08-03T12:14:45.436Z,29.43
2022-08-03T12:15:59.478Z,29.47
2022-08-03T12:18:27.888Z,29.52
2022-08-03T12:21:06.857Z,29.58
2022-08-03T12:23:37.920Z,29.64
2022-08-03T12:26:09.092Z,29.70
2022-08-03T12:28:38.582Z,29.76
2022-08-03T12:31:09.906Z,29.81
2022-08-03T12:34:05.038Z,29.88
2022-08-03T12:36:35.592Z,29.94
2022-08-03T12:39:09.090Z,29.98
2022-08-03T12:41:40.042Z,30.04
2022-08-03T12:44:09.778Z,30.07
2022-08-03T12:46:45.366Z,30.04
2022-08-03T12:49:19.066Z,30.08
2022-08-03T12:51:47.796Z,30.13
2022-08-03T12:54:36.176Z,30.16
2022-08-03T12:57:07.249Z,30.19
2022-08-03T12:59:45.174Z,30.22
2022-08-03T13:02:24.675Z,30.26
2022-08-03T13:04:54.789Z,30.30
2022-08-03T13:07:23.635Z,30.34
2022-08-03T13:09:54.993Z,30.37
2022-08-03T13:12:26.337Z,30.37
2022-08-03T13:15:00.029Z,30.40
2022-08-03T13:17:28.610Z,30.46
2022-08-03T13:19:57.004Z,30.53
2022-08-03T13:22:29.120Z,30.58
2022-08-03T13:24:58.358Z,30.63
2022-08-03T13:28:04.047Z,30.67
2022-08-03T13:30:27.571Z,30.70
2022-08-03T13:33:00.603Z,30.78
2022-08-03T13:35:29.464Z,30.83
2022-08-03T13:37:57.775Z,30.85
2022-08-03T13:40:30.062Z,30.87
2022-08-03T13:42:59.065Z,30.91
2022-08-03T13:45:27.838Z,30.90
2022-08-03T13:47:55.973Z,30.90
2022-08-03T13:50:24.452Z,30.89
2022-08-03T13:52:52.742Z,30.94
2022-08-03T13:55:21.065Z,30.98
2022-08-03T13:58:02.614Z,31.02
2022-08-03T14:00:35.404Z,31.04
2022-08-03T14:03:12.633Z,31.08
2022-08-03T14:05:43.437Z,31.11
2022-08-03T14:08:12.505Z,31.14
2022-08-03T14:10:43.759Z,31.18
2022-08-03T14:13:17.698Z,31.21
2022-08-03T14:15:49.617Z,31.25
2022-08-03T14:18:27.745Z,31.29
2022-08-03T14:21:01.937Z,31.33
2022-08-03T14:23:34.453Z,31.32
2022-08-03T14:26:02.730Z,31.35
2022-08-03T14:28:31.157Z,31.37
2022-08-03T14:30:59.825Z,31.37
2022-08-03T14:33:30.810Z,31.38
2022-08-03T14:35:59.239Z,31.37
2022-08-03T14:38:27.864Z,31.37
2022-08-03T14:40:57.126Z,31.36
2022-08-03T14:44:01.040Z,31.35
2022-08-03T14:46:32.339Z,31.33
2022-08-03T14:50:31.700Z,31.33
2022-08-03T14:51:53.870Z,31.31
2022-08-03T14:54:23.202Z,31.28
2022-08-03T14:56:51.980Z,31.27
2022-08-03T14:59:20.212Z,31.24
2022-08-03T15:02:02.195Z,31.22
2022-08-03T15:04:32.373Z,31.19
2022-08-03T15:07:00.851Z,31.17
2022-08-03T15:09:29.123Z,31.14
2022-08-03T15:11:57.474Z,31.11
2022-08-03T15:14:32.309Z,31.05
2022-08-03T15:17:03.145Z,30.98
2022-08-03T15:20:02.079Z,30.92
2022-08-03T15:22:20.603Z,30.84
2022-08-03T15:24:53.961Z,30.77
2022-08-03T15:27:22.615Z,30.71
2022-08-03T15:30:08.730Z,30.62
2022-08-03T15:32:38.795Z,30.52
2022-08-03T15:35:07.496Z,30.47
2022-08-03T15:37:35.804Z,30.43
2022-08-03T15:40:07.722Z,30.39
2022-08-03T15:42:41.981Z,30.33
2022-08-03T15:45:11.073Z,30.28
2022-08-03T15:47:41.178Z,30.23
2022-08-03T15:50:10.435Z,30.17
2022-08-03T15:52:39.051Z,30.12
2022-08-03T15:55:08.192Z,30.06
2022-08-03T15:59:04.829Z,30.01
2022-08-03T16:00:33.802Z,29.94
2022-08-03T16:03:02.771Z,29.88
2022-08-03T16:05:31.154Z,29.83
2022-08-03T16:08:03.822Z,29.78
2022-08-03T16:10:33.223Z,29.73
2022-08-03T16:13:01.593Z,29.68
2022-08-03T16:15:29.931Z,29.63
2022-08-03T16:17:59.403Z,29.57
2022-08-03T16:20:34.173Z,29.51
2022-08-03T16:23:10.926Z,29.46
2022-08-03T16:25:41.121Z,29.42
2022-08-03T16:28:17.215Z,29.39
2022-08-03T16:30:46.819Z,29.35
2022-08-03T16:33:17.412Z,29.31
2022-08-03T16:35:47.106Z,29.29
2022-08-03T16:38:19.093Z,29.26
2022-08-03T16:40:52.115Z,29.24
2022-08-03T16:43:22.763Z,29.21
2022-08-03T16:45:51.933Z,29.17
2022-08-03T16:48:20.541Z,29.12
2022-08-03T16:50:49.501Z,29.07
2022-08-03T16:53:51.655Z,29.02
2022-08-03T16:56:10.098Z,28.93
2022-08-03T16:58:41.674Z,28.88
2022-08-03T17:01:21.600Z,28.83
2022-08-03T17:04:02.162Z,28.78
2022-08-03T17:06:37.682Z,28.74
2022-08-03T17:09:08.494Z,28.70
2022-08-03T17:11:44.302Z,28.66
2022-08-03T17:14:22.695Z,28.60
2022-08-03T17:16:53.987Z,28.56
2022-08-03T17:19:24.215Z,28.50
2022-08-03T17:22:04.211Z,28.45
2022-08-03T17:24:40.944Z,28.38
2022-08-03T17:28:42.363Z,28.30
2022-08-03T17:30:15.981Z,28.21
2022-08-03T17:32:56.743Z,28.12
2022-08-03T17:35:36.948Z,28.04
2022-08-03T17:38:11.997Z,27.94
2022-08-03T17:40:48.020Z,27.89
2022-08-03T17:44:08.129Z,27.81
2022-08-03T17:46:10.666Z,27.72
2022-08-03T17:51:49.882Z,27.56
2022-08-03T17:54:31.228Z,27.49
2022-08-03T18:00:34.872Z,27.33
2022-08-03T18:08:26.741Z,27.12
2022-08-03T18:12:09.252Z,26.99
2022-08-03T18:16:07.660Z,26.90
2022-08-03T18:20:03.682Z,26.78
2022-08-03T18:23:55.833Z,26.67
2022-08-03T18:27:49.046Z,26.59
2022-08-03T18:51:43.057Z,26.00
2022-08-03T18:56:01.385Z,25.85
2022-08-03T19:00:02.533Z,25.71
2022-08-03T19:03:54.694Z,25.57
2022-08-03T19:07:37.472Z,25.45
2022-08-03T19:15:51.000Z,25.21
2022-08-03T19:19:43.476Z,25.10
2022-08-03T19:23:34.138Z,24.98
2022-08-03T19:43:06.717Z,24.50
2022-08-03T19:46:56.573Z,24.39
2022-08-03T19:50:46.087Z,24.29
2022-08-03T20:06:29.790Z,23.99
2022-08-03T20:10:20.449Z,23.89
2022-08-03T20:14:09.802Z,23.82
2022-08-03T20:18:00.199Z,23.75
2022-08-03T20:33:49.124Z,23.55
2022-08-03T20:37:38.895Z,23.48
2022-08-03T20:41:31.884Z,23.40
2022-08-03T21:01:57.930Z,23.10
2022-08-03T21:05:48.388Z,23.03
2022-08-03T21:09:44.070Z,22.97
2022-08-03T21:12:55.306Z,27.65
2022-08-03T21:13:09.434Z,26.16
2022-08-03T21:13:43.011Z,22.92
2022-08-03T21:17:41.147Z,22.88
2022-08-03T21:21:33.690Z,22.85
2022-08-03T21:25:24.759Z,22.83
2022-08-03T21:29:16.166Z,22.80
2022-08-03T22:00:09.786Z,22.66
2022-08-03T22:03:59.552Z,22.61
2022-08-03T22:07:48.835Z,22.56
2022-08-03T22:11:38.290Z,22.52
2022-08-03T22:15:27.587Z,22.47
2022-08-03T22:23:26.579Z,22.43
2022-08-03T22:27:14.706Z,22.35
2022-08-03T22:31:30.593Z,22.30
2022-08-03T22:39:14.880Z,22.24
2022-08-03T22:43:15.395Z,22.17
2022-08-03T22:47:05.026Z,22.13
2022-08-03T22:54:55.951Z,22.10
2022-08-03T22:58:45.489Z,22.04
2022-08-03T23:02:35.746Z,22.00
2022-08-03T23:06:25.813Z,21.97
2022-08-03T23:10:15.664Z,21.92
2022-08-03T23:14:07.156Z,21.88
2022-08-03T23:26:02.070Z,21.81
2022-08-03T23:29:51.325Z,21.76
2022-08-03T23:38:04.712Z,21.77
2022-08-03T23:41:55.886Z,21.72
2022-08-03T23:45:45.435Z,21.70
2022-08-03T23:49:35.046Z,21.67
2022-08-03T23:53:38.977Z,21.64
